sensor_id;sensor_type;location;lat;lon;timestamp;temperature;humidity
79762;DHT22;69249;42.122;24.734;2024-01-30T00:01:44;4.80;48.90
79762;DHT22;69249;42.122;24.734;2024-01-30T00:04:10;4.90;48.90
79762;DHT22;69249;42.122;24.734;2024-01-30T00:06:36;5.00;48.80
79762;DHT22;69249;42.122;24.734;2024-01-30T00:09:01;4.90;48.70
79762;DHT22;69249;42.122;24.734;2024-01-30T00:11:27;5.00;48.70
79762;DHT22;69249;42.122;24.734;2024-01-30T00:13:54;5.10;48.60
79762;DHT22;69249;42.122;24.734;2024-01-30T00:16:25;5.10;48.40
79762;DHT22;69249;42.122;24.734;2024-01-30T00:18:53;5.20;48.30
79762;DHT22;69249;42.122;24.734;2024-01-30T00:21:20;5.20;48.00
79762;DHT22;69249;42.122;24.734;2024-01-30T00:23:46;5.20;48.00
79762;DHT22;69249;42.122;24.734;2024-01-30T00:26:12;5.10;48.00
79762;DHT22;69249;42.122;24.734;2024-01-30T00:28:38;5.20;47.90
79762;DHT22;69249;42.122;24.734;2024-01-30T00:31:04;5.20;47.90
79762;DHT22;69249;42.122;24.734;2024-01-30T00:33:30;5.10;48.10
79762;DHT22;69249;42.122;24.734;2024-01-30T00:35:56;5.10;48.30
79762;DHT22;69249;42.122;24.734;2024-01-30T00:38:22;5.10;48.10
79762;DHT22;69249;42.122;24.734;2024-01-30T00:40:48;4.90;48.40
79762;DHT22;69249;42.122;24.734;2024-01-30T00:43:15;4.80;48.80
79762;DHT22;69249;42.122;24.734;2024-01-30T00:45:43;4.70;49.00
79762;DHT22;69249;42.122;24.734;2024-01-30T00:48:08;4.70;49.00
79762;DHT22;69249;42.122;24.734;2024-01-30T00:50:34;4.60;49.40
79762;DHT22;69249;42.122;24.734;2024-01-30T00:53:00;4.60;49.50
79762;DHT22;69249;42.122;24.734;2024-01-30T00:55:25;4.70;49.30
79762;DHT22;69249;42.122;24.734;2024-01-30T00:57:51;4.80;49.20
79762;DHT22;69249;42.122;24.734;2024-01-30T01:00:17;4.80;49.30
79762;DHT22;69249;42.122;24.734;2024-01-30T01:02:43;4.70;49.30
79762;DHT22;69249;42.122;24.734;2024-01-30T01:05:09;4.60;49.60
79762;DHT22;69249;42.122;24.734;2024-01-30T01:07:34;4.50;49.90
79762;DHT22;69249;42.122;24.734;2024-01-30T01:10:00;4.50;49.80
79762;DHT22;69249;42.122;24.734;2024-01-30T01:12:26;4.60;49.60
79762;DHT22;69249;42.122;24.734;2024-01-30T01:14:52;4.70;49.70
79762;DHT22;69249;42.122;24.734;2024-01-30T01:17:17;4.70;49.70
79762;DHT22;69249;42.122;24.734;2024-01-30T01:19:44;4.70;49.70
79762;DHT22;69249;42.122;24.734;2024-01-30T01:22:10;4.60;50.20
79762;DHT22;69249;42.122;24.734;2024-01-30T01:24:36;4.60;50.20
79762;DHT22;69249;42.122;24.734;2024-01-30T01:27:02;4.60;50.10
79762;DHT22;69249;42.122;24.734;2024-01-30T01:29:27;4.50;50.20
79762;DHT22;69249;42.122;24.734;2024-01-30T01:31:56;4.60;50.40
79762;DHT22;69249;42.122;24.734;2024-01-30T01:34:22;4.60;50.60
79762;DHT22;69249;42.122;24.734;2024-01-30T01:36:49;4.60;50.50
79762;DHT22;69249;42.122;24.734;2024-01-30T01:39:14;4.60;50.50
79762;DHT22;69249;42.122;24.734;2024-01-30T01:41:40;4.60;50.10
79762;DHT22;69249;42.122;24.734;2024-01-30T01:44:06;4.50;50.30
79762;DHT22;69249;42.122;24.734;2024-01-30T01:46:33;4.40;50.40
79762;DHT22;69249;42.122;24.734;2024-01-30T01:49:01;4.30;50.40
79762;DHT22;69249;42.122;24.734;2024-01-30T01:51:28;4.40;50.60
79762;DHT22;69249;42.122;24.734;2024-01-30T01:53:56;4.50;50.30
79762;DHT22;69249;42.122;24.734;2024-01-30T01:56:23;4.10;51.00
79762;DHT22;69249;42.122;24.734;2024-01-30T01:58:50;4.00;51.30
79762;DHT22;69249;42.122;24.734;2024-01-30T02:01:19;4.10;51.20
79762;DHT22;69249;42.122;24.734;2024-01-30T02:03:46;4.20;51.20
79762;DHT22;69249;42.122;24.734;2024-01-30T02:06:16;4.10;51.30
79762;DHT22;69249;42.122;24.734;2024-01-30T02:08:41;4.00;51.80
79762;DHT22;69249;42.122;24.734;2024-01-30T02:11:07;4.00;52.10
79762;DHT22;69249;42.122;24.734;2024-01-30T02:13:34;4.00;52.00
79762;DHT22;69249;42.122;24.734;2024-01-30T02:16:00;3.80;52.70
79762;DHT22;69249;42.122;24.734;2024-01-30T02:18:26;3.40;54.30
79762;DHT22;69249;42.122;24.734;2024-01-30T02:20:54;3.20;55.10
79762;DHT22;69249;42.122;24.734;2024-01-30T02:23:20;3.10;55.80
79762;DHT22;69249;42.122;24.734;2024-01-30T02:25:46;3.10;56.20
79762;DHT22;69249;42.122;24.734;2024-01-30T02:28:12;3.20;56.20
79762;DHT22;69249;42.122;24.734;2024-01-30T02:30:42;3.40;55.50
79762;DHT22;69249;42.122;24.734;2024-01-30T02:33:08;3.50;54.90
79762;DHT22;69249;42.122;24.734;2024-01-30T02:35:34;3.50;55.00
79762;DHT22;69249;42.122;24.734;2024-01-30T02:38:00;3.50;55.00
79762;DHT22;69249;42.122;24.734;2024-01-30T02:40:26;3.40;55.20
79762;DHT22;69249;42.122;24.734;2024-01-30T02:42:52;3.40;55.30
79762;DHT22;69249;42.122;24.734;2024-01-30T02:45:18;3.30;55.60
79762;DHT22;69249;42.122;24.734;2024-01-30T02:47:43;3.00;56.60
79762;DHT22;69249;42.122;24.734;2024-01-30T02:50:09;2.90;57.10
79762;DHT22;69249;42.122;24.734;2024-01-30T02:52:35;2.90;57.50
79762;DHT22;69249;42.122;24.734;2024-01-30T02:55:01;2.70;58.40
79762;DHT22;69249;42.122;24.734;2024-01-30T02:57:28;2.70;58.90
79762;DHT22;69249;42.122;24.734;2024-01-30T02:59:54;2.80;58.70
79762;DHT22;69249;42.122;24.734;2024-01-30T03:02:20;2.90;58.40
79762;DHT22;69249;42.122;24.734;2024-01-30T03:04:45;2.80;58.40
79762;DHT22;69249;42.122;24.734;2024-01-30T03:07:11;2.90;58.30
79762;DHT22;69249;42.122;24.734;2024-01-30T03:09:37;3.10;57.70
79762;DHT22;69249;42.122;24.734;2024-01-30T03:12:03;3.00;57.50
79762;DHT22;69249;42.122;24.734;2024-01-30T03:14:32;3.20;58.30
79762;DHT22;69249;42.122;24.734;2024-01-30T03:16:58;3.40;57.10
79762;DHT22;69249;42.122;24.734;2024-01-30T03:19:24;3.50;56.50
79762;DHT22;69249;42.122;24.734;2024-01-30T03:21:50;3.70;55.90
79762;DHT22;69249;42.122;24.734;2024-01-30T03:24:17;3.70;55.50
79762;DHT22;69249;42.122;24.734;2024-01-30T03:26:43;3.70;55.50
79762;DHT22;69249;42.122;24.734;2024-01-30T03:29:09;3.60;55.70
79762;DHT22;69249;42.122;24.734;2024-01-30T03:31:34;3.60;55.90
79762;DHT22;69249;42.122;24.734;2024-01-30T03:34:01;3.70;55.70
79762;DHT22;69249;42.122;24.734;2024-01-30T03:36:26;3.70;55.40
79762;DHT22;69249;42.122;24.734;2024-01-30T03:38:52;3.70;55.40
79762;DHT22;69249;42.122;24.734;2024-01-30T03:41:18;3.80;55.60
79762;DHT22;69249;42.122;24.734;2024-01-30T03:43:43;3.80;55.60
79762;DHT22;69249;42.122;24.734;2024-01-30T03:46:09;4.00;55.20
79762;DHT22;69249;42.122;24.734;2024-01-30T03:48:37;4.00;54.70
79762;DHT22;69249;42.122;24.734;2024-01-30T03:51:03;3.80;54.90
79762;DHT22;69249;42.122;24.734;2024-01-30T03:53:28;3.80;55.30
79762;DHT22;69249;42.122;24.734;2024-01-30T03:55:54;3.90;55.00
79762;DHT22;69249;42.122;24.734;2024-01-30T03:58:19;3.80;55.20
79762;DHT22;69249;42.122;24.734;2024-01-30T04:00:45;3.50;55.50
79762;DHT22;69249;42.122;24.734;2024-01-30T04:03:11;3.40;56.40
79762;DHT22;69249;42.122;24.734;2024-01-30T04:05:37;3.40;56.60
79762;DHT22;69249;42.122;24.734;2024-01-30T04:08:02;3.20;57.10
79762;DHT22;69249;42.122;24.734;2024-01-30T04:10:28;3.20;57.30
79762;DHT22;69249;42.122;24.734;2024-01-30T04:12:54;2.90;58.10
79762;DHT22;69249;42.122;24.734;2024-01-30T04:15:20;2.90;58.60
79762;DHT22;69249;42.122;24.734;2024-01-30T04:17:45;2.90;59.00
79762;DHT22;69249;42.122;24.734;2024-01-30T04:20:15;2.70;59.50
79762;DHT22;69249;42.122;24.734;2024-01-30T04:22:45;2.90;59.40
79762;DHT22;69249;42.122;24.734;2024-01-30T04:25:14;3.00;59.00
79762;DHT22;69249;42.122;24.734;2024-01-30T04:27:40;2.70;60.00
79762;DHT22;69249;42.122;24.734;2024-01-30T04:30:06;2.60;60.20
79762;DHT22;69249;42.122;24.734;2024-01-30T04:32:32;2.60;60.40
79762;DHT22;69249;42.122;24.734;2024-01-30T04:34:58;2.60;60.60
79762;DHT22;69249;42.122;24.734;2024-01-30T04:37:24;2.60;60.50
79762;DHT22;69249;42.122;24.734;2024-01-30T04:39:50;2.40;61.30
79762;DHT22;69249;42.122;24.734;2024-01-30T04:42:16;2.30;61.80
79762;DHT22;69249;42.122;24.734;2024-01-30T04:44:42;2.40;61.70
79762;DHT22;69249;42.122;24.734;2024-01-30T04:47:08;2.50;61.60
79762;DHT22;69249;42.122;24.734;2024-01-30T04:49:36;2.80;60.50
79762;DHT22;69249;42.122;24.734;2024-01-30T04:52:02;3.20;59.30
79762;DHT22;69249;42.122;24.734;2024-01-30T04:54:28;3.30;58.90
79762;DHT22;69249;42.122;24.734;2024-01-30T04:56:54;3.50;58.10
79762;DHT22;69249;42.122;24.734;2024-01-30T04:59:19;3.60;57.30
79762;DHT22;69249;42.122;24.734;2024-01-30T05:01:45;3.50;58.50
79762;DHT22;69249;42.122;24.734;2024-01-30T05:04:10;3.50;57.50
79762;DHT22;69249;42.122;24.734;2024-01-30T05:06:36;3.40;57.90
79762;DHT22;69249;42.122;24.734;2024-01-30T05:09:02;3.30;57.90
79762;DHT22;69249;42.122;24.734;2024-01-30T05:11:30;3.30;58.30
79762;DHT22;69249;42.122;24.734;2024-01-30T05:13:56;3.30;58.50
79762;DHT22;69249;42.122;24.734;2024-01-30T05:16:22;3.30;58.70
79762;DHT22;69249;42.122;24.734;2024-01-30T05:18:47;3.50;58.00
79762;DHT22;69249;42.122;24.734;2024-01-30T05:21:13;3.60;57.40
79762;DHT22;69249;42.122;24.734;2024-01-30T05:23:39;3.70;56.60
79762;DHT22;69249;42.122;24.734;2024-01-30T05:26:07;3.90;55.50
79762;DHT22;69249;42.122;24.734;2024-01-30T05:28:33;3.70;56.20
79762;DHT22;69249;42.122;24.734;2024-01-30T05:30:59;3.80;55.90
79762;DHT22;69249;42.122;24.734;2024-01-30T05:33:25;3.80;56.00
79762;DHT22;69249;42.122;24.734;2024-01-30T05:35:50;3.70;56.40
79762;DHT22;69249;42.122;24.734;2024-01-30T05:38:19;3.70;56.60
79762;DHT22;69249;42.122;24.734;2024-01-30T05:40:45;3.60;56.70
79762;DHT22;69249;42.122;24.734;2024-01-30T05:43:11;3.80;56.30
79762;DHT22;69249;42.122;24.734;2024-01-30T05:45:37;4.00;55.80
79762;DHT22;69249;42.122;24.734;2024-01-30T05:48:03;4.00;55.70
79762;DHT22;69249;42.122;24.734;2024-01-30T05:50:28;3.90;55.90
79762;DHT22;69249;42.122;24.734;2024-01-30T05:52:58;3.90;56.20
79762;DHT22;69249;42.122;24.734;2024-01-30T05:55:23;4.20;55.10
79762;DHT22;69249;42.122;24.734;2024-01-30T05:57:49;4.30;54.50
79762;DHT22;69249;42.122;24.734;2024-01-30T06:00:16;4.50;54.20
79762;DHT22;69249;42.122;24.734;2024-01-30T06:02:42;4.30;54.50
79762;DHT22;69249;42.122;24.734;2024-01-30T06:05:08;4.40;54.60
79762;DHT22;69249;42.122;24.734;2024-01-30T06:07:34;4.40;54.40
79762;DHT22;69249;42.122;24.734;2024-01-30T06:09:59;4.60;53.30
79762;DHT22;69249;42.122;24.734;2024-01-30T06:12:27;4.60;53.20
79762;DHT22;69249;42.122;24.734;2024-01-30T06:14:53;4.60;53.00
79762;DHT22;69249;42.122;24.734;2024-01-30T06:17:22;4.60;53.30
79762;DHT22;69249;42.122;24.734;2024-01-30T06:19:48;4.30;54.20
79762;DHT22;69249;42.122;24.734;2024-01-30T06:22:13;4.40;54.20
79762;DHT22;69249;42.122;24.734;2024-01-30T06:24:39;4.30;54.40
79762;DHT22;69249;42.122;24.734;2024-01-30T06:27:05;4.50;54.40
79762;DHT22;69249;42.122;24.734;2024-01-30T06:29:30;4.70;53.70
79762;DHT22;69249;42.122;24.734;2024-01-30T06:31:56;5.00;52.40
79762;DHT22;69249;42.122;24.734;2024-01-30T06:34:22;4.90;52.50
79762;DHT22;69249;42.122;24.734;2024-01-30T06:36:48;4.90;52.50
79762;DHT22;69249;42.122;24.734;2024-01-30T06:39:14;4.90;52.50
79762;DHT22;69249;42.122;24.734;2024-01-30T06:41:39;4.80;52.60
79762;DHT22;69249;42.122;24.734;2024-01-30T06:44:05;4.70;53.50
79762;DHT22;69249;42.122;24.734;2024-01-30T06:46:32;4.40;54.20
79762;DHT22;69249;42.122;24.734;2024-01-30T06:48:58;4.20;54.90
79762;DHT22;69249;42.122;24.734;2024-01-30T06:51:23;4.10;55.80
79762;DHT22;69249;42.122;24.734;2024-01-30T06:53:49;3.90;56.60
79762;DHT22;69249;42.122;24.734;2024-01-30T06:56:16;3.80;57.30
79762;DHT22;69249;42.122;24.734;2024-01-30T06:58:47;3.90;57.20
79762;DHT22;69249;42.122;24.734;2024-01-30T07:01:12;3.90;57.00
79762;DHT22;69249;42.122;24.734;2024-01-30T07:03:38;4.00;57.00
79762;DHT22;69249;42.122;24.734;2024-01-30T07:06:04;4.00;56.70
79762;DHT22;69249;42.122;24.734;2024-01-30T07:08:29;4.10;56.60
79762;DHT22;69249;42.122;24.734;2024-01-30T07:10:55;4.20;56.50
79762;DHT22;69249;42.122;24.734;2024-01-30T07:13:21;4.30;56.00
79762;DHT22;69249;42.122;24.734;2024-01-30T07:15:47;4.50;55.70
79762;DHT22;69249;42.122;24.734;2024-01-30T07:18:13;4.60;54.80
79762;DHT22;69249;42.122;24.734;2024-01-30T07:20:41;4.60;54.50
79762;DHT22;69249;42.122;24.734;2024-01-30T07:23:12;4.60;54.70
79762;DHT22;69249;42.122;24.734;2024-01-30T07:25:40;4.50;54.90
79762;DHT22;69249;42.122;24.734;2024-01-30T07:28:09;4.40;55.10
79762;DHT22;69249;42.122;24.734;2024-01-30T07:30:36;4.30;55.80
79762;DHT22;69249;42.122;24.734;2024-01-30T07:33:02;4.30;55.90
79762;DHT22;69249;42.122;24.734;2024-01-30T07:35:28;4.40;56.10
79762;DHT22;69249;42.122;24.734;2024-01-30T07:37:53;4.50;55.70
79762;DHT22;69249;42.122;24.734;2024-01-30T07:40:19;4.60;55.00
79762;DHT22;69249;42.122;24.734;2024-01-30T07:42:45;4.70;53.80
79762;DHT22;69249;42.122;24.734;2024-01-30T07:45:10;4.80;52.90
79762;DHT22;69249;42.122;24.734;2024-01-30T07:47:36;4.90;52.60
79762;DHT22;69249;42.122;24.734;2024-01-30T07:50:02;5.00;52.10
79762;DHT22;69249;42.122;24.734;2024-01-30T07:52:28;4.90;52.20
79762;DHT22;69249;42.122;24.734;2024-01-30T07:54:54;5.10;52.10
79762;DHT22;69249;42.122;24.734;2024-01-30T07:57:20;5.30;51.20
79762;DHT22;69249;42.122;24.734;2024-01-30T07:59:46;5.60;49.90
79762;DHT22;69249;42.122;24.734;2024-01-30T08:02:14;5.70;49.20
79762;DHT22;69249;42.122;24.734;2024-01-30T08:04:40;5.80;49.00
79762;DHT22;69249;42.122;24.734;2024-01-30T08:07:06;5.90;48.60
79762;DHT22;69249;42.122;24.734;2024-01-30T08:09:31;5.80;48.70
79762;DHT22;69249;42.122;24.734;2024-01-30T08:11:57;5.80;48.30
79762;DHT22;69249;42.122;24.734;2024-01-30T08:14:22;5.80;48.20
79762;DHT22;69249;42.122;24.734;2024-01-30T08:16:48;5.60;49.20
79762;DHT22;69249;42.122;24.734;2024-01-30T08:19:17;5.40;49.80
79762;DHT22;69249;42.122;24.734;2024-01-30T08:21:42;5.70;48.90
79762;DHT22;69249;42.122;24.734;2024-01-30T08:24:08;5.90;48.40
79762;DHT22;69249;42.122;24.734;2024-01-30T08:26:35;6.00;47.60
79762;DHT22;69249;42.122;24.734;2024-01-30T08:29:01;6.10;47.90
79762;DHT22;69249;42.122;24.734;2024-01-30T08:31:27;6.40;46.90
79762;DHT22;69249;42.122;24.734;2024-01-30T08:33:53;6.60;46.00
79762;DHT22;69249;42.122;24.734;2024-01-30T08:36:19;6.60;45.90
79762;DHT22;69249;42.122;24.734;2024-01-30T08:38:45;6.60;47.30
79762;DHT22;69249;42.122;24.734;2024-01-30T08:41:10;6.70;45.80
79762;DHT22;69249;42.122;24.734;2024-01-30T08:43:36;6.60;45.70
79762;DHT22;69249;42.122;24.734;2024-01-30T08:46:05;6.60;45.90
79762;DHT22;69249;42.122;24.734;2024-01-30T08:48:31;6.50;46.40
79762;DHT22;69249;42.122;24.734;2024-01-30T08:50:57;6.60;45.60
79762;DHT22;69249;42.122;24.734;2024-01-30T08:53:23;6.60;45.60
79762;DHT22;69249;42.122;24.734;2024-01-30T08:55:48;6.70;44.30
79762;DHT22;69249;42.122;24.734;2024-01-30T08:58:14;6.70;43.80
79762;DHT22;69249;42.122;24.734;2024-01-30T09:00:40;6.50;43.30
79762;DHT22;69249;42.122;24.734;2024-01-30T09:03:06;6.50;43.20
79762;DHT22;69249;42.122;24.734;2024-01-30T09:05:32;6.40;43.60
79762;DHT22;69249;42.122;24.734;2024-01-30T09:07:57;6.40;43.30
79762;DHT22;69249;42.122;24.734;2024-01-30T09:10:23;6.40;43.70
79762;DHT22;69249;42.122;24.734;2024-01-30T09:12:49;6.40;43.90
79762;DHT22;69249;42.122;24.734;2024-01-30T09:15:14;6.40;43.80
79762;DHT22;69249;42.122;24.734;2024-01-30T09:17:40;6.40;44.30
79762;DHT22;69249;42.122;24.734;2024-01-30T09:20:06;6.60;44.00
79762;DHT22;69249;42.122;24.734;2024-01-30T09:22:32;6.80;43.20
79762;DHT22;69249;42.122;24.734;2024-01-30T09:24:58;7.10;42.80
79762;DHT22;69249;42.122;24.734;2024-01-30T09:27:26;7.10;43.20
79762;DHT22;69249;42.122;24.734;2024-01-30T09:29:52;6.90;43.00
79762;DHT22;69249;42.122;24.734;2024-01-30T09:32:18;7.10;43.20
79762;DHT22;69249;42.122;24.734;2024-01-30T09:34:44;7.30;43.10
79762;DHT22;69249;42.122;24.734;2024-01-30T09:37:09;7.20;42.90
79762;DHT22;69249;42.122;24.734;2024-01-30T09:39:35;7.10;43.30
79762;DHT22;69249;42.122;24.734;2024-01-30T09:44:51;7.40;42.80
79762;DHT22;69249;42.122;24.734;2024-01-30T09:47:17;7.50;41.90
79762;DHT22;69249;42.122;24.734;2024-01-30T09:49:44;7.30;42.30
79762;DHT22;69249;42.122;24.734;2024-01-30T09:52:11;7.30;42.20
79762;DHT22;69249;42.122;24.734;2024-01-30T09:54:38;7.20;42.70
79762;DHT22;69249;42.122;24.734;2024-01-30T09:57:04;7.20;42.90
79762;DHT22;69249;42.122;24.734;2024-01-30T09:59:30;7.20;43.10
79762;DHT22;69249;42.122;24.734;2024-01-30T10:01:57;7.40;42.40
79762;DHT22;69249;42.122;24.734;2024-01-30T10:04:22;7.40;42.00
79762;DHT22;69249;42.122;24.734;2024-01-30T10:06:48;7.30;42.40
79762;DHT22;69249;42.122;24.734;2024-01-30T10:09:14;7.50;41.90
79762;DHT22;69249;42.122;24.734;2024-01-30T10:11:40;7.50;42.10
79762;DHT22;69249;42.122;24.734;2024-01-30T10:14:06;7.80;41.50
79762;DHT22;69249;42.122;24.734;2024-01-30T10:16:31;7.90;41.40
79762;DHT22;69249;42.122;24.734;2024-01-30T10:18:57;8.20;40.50
79762;DHT22;69249;42.122;24.734;2024-01-30T10:21:23;8.30;40.00
79762;DHT22;69249;42.122;24.734;2024-01-30T10:23:49;8.00;40.20
79762;DHT22;69249;42.122;24.734;2024-01-30T10:26:16;8.10;40.20
79762;DHT22;69249;42.122;24.734;2024-01-30T10:28:43;8.40;39.60
79762;DHT22;69249;42.122;24.734;2024-01-30T10:31:08;8.60;38.90
79762;DHT22;69249;42.122;24.734;2024-01-30T10:33:34;8.80;38.40
79762;DHT22;69249;42.122;24.734;2024-01-30T10:36:02;8.80;38.10
79762;DHT22;69249;42.122;24.734;2024-01-30T10:38:32;9.00;38.20
79762;DHT22;69249;42.122;24.734;2024-01-30T10:40:58;9.20;37.90
79762;DHT22;69249;42.122;24.734;2024-01-30T10:43:40;9.40;37.50
79762;DHT22;69249;42.122;24.734;2024-01-30T10:46:18;9.60;35.50
79762;DHT22;69249;42.122;24.734;2024-01-30T10:48:57;9.80;35.10
79762;DHT22;69249;42.122;24.734;2024-01-30T10:51:27;9.80;35.30
79762;DHT22;69249;42.122;24.734;2024-01-30T10:53:53;9.80;35.60
79762;DHT22;69249;42.122;24.734;2024-01-30T10:56:24;9.90;35.30
79762;DHT22;69249;42.122;24.734;2024-01-30T10:58:53;9.90;35.00
79762;DHT22;69249;42.122;24.734;2024-01-30T11:01:21;9.80;35.30
79762;DHT22;69249;42.122;24.734;2024-01-30T11:03:52;10.00;35.10
79762;DHT22;69249;42.122;24.734;2024-01-30T11:06:18;9.90;35.20
79762;DHT22;69249;42.122;24.734;2024-01-30T11:09:00;10.00;34.70
79762;DHT22;69249;42.122;24.734;2024-01-30T11:11:27;10.20;34.40
79762;DHT22;69249;42.122;24.734;2024-01-30T11:13:53;10.40;34.00
79762;DHT22;69249;42.122;24.734;2024-01-30T11:16:20;10.70;33.70
79762;DHT22;69249;42.122;24.734;2024-01-30T11:18:50;10.80;33.20
79762;DHT22;69249;42.122;24.734;2024-01-30T11:21:16;10.90;32.60
79762;DHT22;69249;42.122;24.734;2024-01-30T11:23:42;11.10;32.50
79762;DHT22;69249;42.122;24.734;2024-01-30T11:26:10;11.40;32.20
79762;DHT22;69249;42.122;24.734;2024-01-30T11:28:38;11.80;31.50
79762;DHT22;69249;42.122;24.734;2024-01-30T11:31:07;11.80;30.70
79762;DHT22;69249;42.122;24.734;2024-01-30T11:33:33;11.60;30.90
79762;DHT22;69249;42.122;24.734;2024-01-30T11:36:00;11.70;31.00
79762;DHT22;69249;42.122;24.734;2024-01-30T11:38:27;11.40;31.30
79762;DHT22;69249;42.122;24.734;2024-01-30T11:40:54;11.20;32.10
79762;DHT22;69249;42.122;24.734;2024-01-30T11:43:22;11.00;32.00
79762;DHT22;69249;42.122;24.734;2024-01-30T11:45:47;10.70;32.60
79762;DHT22;69249;42.122;24.734;2024-01-30T11:48:13;10.40;33.50
79762;DHT22;69249;42.122;24.734;2024-01-30T11:50:39;10.40;33.50
79762;DHT22;69249;42.122;24.734;2024-01-30T11:53:08;10.40;33.50
79762;DHT22;69249;42.122;24.734;2024-01-30T11:55:34;10.10;33.20
79762;DHT22;69249;42.122;24.734;2024-01-30T11:58:02;10.00;32.60
79762;DHT22;69249;42.122;24.734;2024-01-30T12:00:29;9.90;34.20
79762;DHT22;69249;42.122;24.734;2024-01-30T12:02:56;9.90;33.70
79762;DHT22;69249;42.122;24.734;2024-01-30T12:05:25;10.00;33.20
79762;DHT22;69249;42.122;24.734;2024-01-30T12:07:51;10.40;32.20
79762;DHT22;69249;42.122;24.734;2024-01-30T12:10:17;10.80;31.70
79762;DHT22;69249;42.122;24.734;2024-01-30T12:12:49;11.30;31.40
79762;DHT22;69249;42.122;24.734;2024-01-30T12:15:16;12.10;30.40
79762;DHT22;69249;42.122;24.734;2024-01-30T12:17:42;12.90;28.90
79762;DHT22;69249;42.122;24.734;2024-01-30T12:20:09;13.40;28.50
79762;DHT22;69249;42.122;24.734;2024-01-30T12:22:40;14.20;27.90
79762;DHT22;69249;42.122;24.734;2024-01-30T12:25:13;15.00;27.50
79762;DHT22;69249;42.122;24.734;2024-01-30T12:27:41;15.40;26.10
79762;DHT22;69249;42.122;24.734;2024-01-30T12:30:12;16.10;25.40
79762;DHT22;69249;42.122;24.734;2024-01-30T12:32:43;16.70;25.20
79762;DHT22;69249;42.122;24.734;2024-01-30T12:35:17;16.90;24.10
79762;DHT22;69249;42.122;24.734;2024-01-30T12:37:43;17.60;23.80
79762;DHT22;69249;42.122;24.734;2024-01-30T12:40:11;18.50;23.10
79762;DHT22;69249;42.122;24.734;2024-01-30T12:42:38;18.50;22.70
79762;DHT22;69249;42.122;24.734;2024-01-30T12:45:05;18.60;23.00
79762;DHT22;69249;42.122;24.734;2024-01-30T12:47:31;19.20;22.30
79762;DHT22;69249;42.122;24.734;2024-01-30T12:49:57;20.00;21.40
79762;DHT22;69249;42.122;24.734;2024-01-30T12:52:23;20.50;20.90
79762;DHT22;69249;42.122;24.734;2024-01-30T12:54:49;20.10;21.50
79762;DHT22;69249;42.122;24.734;2024-01-30T12:57:15;19.30;21.50
79762;DHT22;69249;42.122;24.734;2024-01-30T12:59:42;18.40;22.00
79762;DHT22;69249;42.122;24.734;2024-01-30T13:02:08;17.50;22.90
79762;DHT22;69249;42.122;24.734;2024-01-30T13:04:34;16.70;23.60
79762;DHT22;69249;42.122;24.734;2024-01-30T13:07:00;15.90;24.60
79762;DHT22;69249;42.122;24.734;2024-01-30T13:09:29;15.40;25.10
79762;DHT22;69249;42.122;24.734;2024-01-30T13:11:55;14.80;25.90
79762;DHT22;69249;42.122;24.734;2024-01-30T13:14:21;14.40;26.40
79762;DHT22;69249;42.122;24.734;2024-01-30T13:16:46;14.00;26.80
79762;DHT22;69249;42.122;24.734;2024-01-30T13:19:12;13.30;27.80
79762;DHT22;69249;42.122;24.734;2024-01-30T13:21:38;12.80;28.40
79762;DHT22;69249;42.122;24.734;2024-01-30T13:24:04;12.30;29.20
79762;DHT22;69249;42.122;24.734;2024-01-30T13:26:32;12.20;29.10
79762;DHT22;69249;42.122;24.734;2024-01-30T13:28:58;11.80;29.80
79762;DHT22;69249;42.122;24.734;2024-01-30T13:31:24;11.60;30.20
79762;DHT22;69249;42.122;24.734;2024-01-30T13:33:50;11.40;30.20
79762;DHT22;69249;42.122;24.734;2024-01-30T13:36:16;11.30;30.60
79762;DHT22;69249;42.122;24.734;2024-01-30T13:38:42;11.20;31.20
79762;DHT22;69249;42.122;24.734;2024-01-30T13:41:07;11.30;31.20
79762;DHT22;69249;42.122;24.734;2024-01-30T13:43:33;11.30;31.00
79762;DHT22;69249;42.122;24.734;2024-01-30T13:45:59;11.30;31.10
79762;DHT22;69249;42.122;24.734;2024-01-30T13:48:25;11.60;31.30
79762;DHT22;69249;42.122;24.734;2024-01-30T13:50:51;12.00;30.60
79762;DHT22;69249;42.122;24.734;2024-01-30T13:53:16;12.30;29.90
79762;DHT22;69249;42.122;24.734;2024-01-30T13:55:43;12.50;29.60
79762;DHT22;69249;42.122;24.734;2024-01-30T13:58:08;12.50;29.30
79762;DHT22;69249;42.122;24.734;2024-01-30T14:00:34;12.40;29.30
79762;DHT22;69249;42.122;24.734;2024-01-30T14:03:00;12.40;29.40
79762;DHT22;69249;42.122;24.734;2024-01-30T14:05:26;12.30;29.40
79762;DHT22;69249;42.122;24.734;2024-01-30T14:07:56;12.00;29.90
79762;DHT22;69249;42.122;24.734;2024-01-30T14:10:22;11.80;30.20
79762;DHT22;69249;42.122;24.734;2024-01-30T14:12:48;11.60;30.50
79762;DHT22;69249;42.122;24.734;2024-01-30T14:15:15;11.70;30.60
79762;DHT22;69249;42.122;24.734;2024-01-30T14:17:43;11.80;30.40
79762;DHT22;69249;42.122;24.734;2024-01-30T14:20:09;11.70;30.50
79762;DHT22;69249;42.122;24.734;2024-01-30T14:22:36;11.70;30.50
79762;DHT22;69249;42.122;24.734;2024-01-30T14:25:01;11.60;30.60
79762;DHT22;69249;42.122;24.734;2024-01-30T14:27:31;11.60;30.80
79762;DHT22;69249;42.122;24.734;2024-01-30T14:29:57;11.50;30.80
79762;DHT22;69249;42.122;24.734;2024-01-30T14:32:24;11.30;31.00
79762;DHT22;69249;42.122;24.734;2024-01-30T14:34:53;11.20;31.40
79762;DHT22;69249;42.122;24.734;2024-01-30T14:37:20;11.10;31.50
79762;DHT22;69249;42.122;24.734;2024-01-30T14:39:46;11.00;31.80
79762;DHT22;69249;42.122;24.734;2024-01-30T14:42:13;10.80;32.10
79762;DHT22;69249;42.122;24.734;2024-01-30T14:44:39;10.80;32.20
79762;DHT22;69249;42.122;24.734;2024-01-30T14:47:05;10.60;32.90
79762;DHT22;69249;42.122;24.734;2024-01-30T14:49:31;10.50;32.70
79762;DHT22;69249;42.122;24.734;2024-01-30T14:51:57;10.10;33.20
79762;DHT22;69249;42.122;24.734;2024-01-30T14:54:24;10.00;33.80
79762;DHT22;69249;42.122;24.734;2024-01-30T14:56:50;9.70;34.30
79762;DHT22;69249;42.122;24.734;2024-01-30T14:59:16;9.40;34.80
79762;DHT22;69249;42.122;24.734;2024-01-30T15:01:42;9.30;35.10
79762;DHT22;69249;42.122;24.734;2024-01-30T15:04:08;9.10;35.80
79762;DHT22;69249;42.122;24.734;2024-01-30T15:06:34;8.90;36.10
79762;DHT22;69249;42.122;24.734;2024-01-30T15:09:00;8.60;36.90
79762;DHT22;69249;42.122;24.734;2024-01-30T15:11:25;8.30;37.20
79762;DHT22;69249;42.122;24.734;2024-01-30T15:13:51;8.20;37.70
79762;DHT22;69249;42.122;24.734;2024-01-30T15:16:17;8.00;38.00
79762;DHT22;69249;42.122;24.734;2024-01-30T15:18:42;7.70;38.90
79762;DHT22;69249;42.122;24.734;2024-01-30T15:21:08;7.70;38.90
79762;DHT22;69249;42.122;24.734;2024-01-30T15:23:34;7.70;38.80
79762;DHT22;69249;42.122;24.734;2024-01-30T15:25:59;7.50;39.20